Time;durP1;ratioP1;P1;durP2;ratioP2;P2;SDS_P1;SDS_P2;PMS_P1;PMS_P2;Temp;Humidity;BMP_temperature;BMP_pressure;BME280_temperature;BME280_humidity;BME280_pressure;Samples;Min_cycle;Max_cycle;Signal;HPM_P1;HPM_P2
2023/01/17 00:15:05;;;;;;;1.48;1.20;;;;;;;19.09;35.09;101009.72;21077429;28;20024;-61
2023/01/17 01:37:18;;;;;;;3.65;1.70;;;;;;;19.35;34.87;100988.53;21076900;28;20028;-60
2023/01/17 01:47:26;;;;;;;3.65;1.58;;;;;;;19.35;35.32;100974.66;21069378;28;20039;-61
2023/01/17 01:57:34;;;;;;;6.15;1.95;;;;;;;19.32;34.82;100986.31;21071883;28;20040;-61
2023/01/17 02:07:42;;;;;;;4.20;1.67;;;;;;;19.29;35.01;100987.69;21080346;28;20044;-61
2023/01/17 02:18:01;;;;;;;5.35;1.67;;;;;;;19.25;34.98;101009.56;21085183;28;20036;-62
2023/01/17 02:28:14;;;;;;;2.83;1.40;;;;;;;19.26;35.26;101002.09;21087702;28;20552;-61
2023/01/17 02:38:39;;;;;;;6.78;1.83;;;;;;;19.23;36.24;101006.22;21083458;28;20475;-61
2023/01/17 02:48:41;;;;;;;9.82;4.53;;;;;;;19.29;36.92;101005.16;21086593;28;20048;-62
2023/01/17 02:58:57;;;;;;;214.52;112.35;;;;;;;19.32;37.38;100998.22;21085977;28;20059;-60
2023/01/17 03:08:59;;;;;;;277.02;148.98;;;;;;;19.33;37.00;100994.34;21043888;28;20063;-63
2023/01/17 03:19:03;;;;;;;298.95;157.55;;;;;;;16.89;37.22;100630.44;21077887;28;20035;-61
2023/01/17 03:29:04;;;;;;;294.48;156.40;;;;;;;19.27;37.29;101001.81;21078048;28;20036;-63
2023/01/17 03:39:06;;;;;;;267.38;147.10;;;;;;;19.25;37.48;100992.94;21080185;28;20089;-63
2023/01/17 03:49:08;;;;;;;253.00;138.05;;;;;;;19.28;37.51;100997.91;21067475;28;20044;-61
2023/01/17 03:59:09;;;;;;;248.68;131.02;;;;;;;19.24;37.60;100985.72;21067575;28;20036;-63
2023/01/17 04:09:11;;;;;;;229.27;124.95;;;;;;;19.26;37.34;100986.28;21050085;28;20052;-62
2023/01/17 04:19:12;;;;;;;212.35;117.40;;;;;;;19.26;37.40;100971.56;21073564;28;20089;-61
2023/01/17 04:29:16;;;;;;;213.52;116.07;;;;;;;19.23;37.66;100978.47;21067487;28;20050;-61
2023/01/17 04:39:26;;;;;;;197.90;106.40;;;;;;;19.28;37.57;100947.97;21070696;28;20441;-62
2023/01/17 04:49:31;;;;;;;190.40;100.95;;;;;;;19.28;37.58;100947.97;21062357;28;20043;-62
2023/01/17 04:59:32;;;;;;;181.65;93.72;;;;;;;19.21;37.33;100919.66;21070925;28;20491;-63
2023/01/17 05:09:36;;;;;;;167.13;90.43;;;;;;;19.27;37.21;100934.38;21068528;28;20036;-62
2023/01/17 05:19:37;;;;;;;158.30;82.68;;;;;;;19.29;37.31;100930.25;21063374;28;20097;-61
2023/01/17 05:29:39;;;;;;;139.43;77.68;;;;;;;19.29;37.04;100915.56;21065274;28;20048;-64
2023/01/17 05:39:41;;;;;;;138.02;74.50;;;;;;;19.05;37.10;100873.53;21070268;28;21005;-61
2023/01/17 05:49:42;;;;;;;123.72;66.28;;;;;;;19.30;37.32;100886.69;21082621;28;20051;-61
2023/01/17 05:59:43;;;;;;;115.82;60.17;;;;;;;19.26;37.61;100880.84;21079243;28;20081;-62
2023/01/17 06:09:45;;;;;;;134.55;62.88;;;;;;;19.29;37.56;100904.44;21077524;28;20491;-60
2023/01/17 06:19:47;;;;;;;120.97;60.65;;;;;;;19.30;37.49;100904.16;21072890;28;20076;-62
2023/01/17 06:29:48;;;;;;;101.97;50.22;;;;;;;19.36;37.75;100920.84;21082272;28;20043;-61
2023/01/17 06:39:49;;;;;;;93.18;50.92;;;;;;;19.41;37.77;100916.13;21069414;28;20074;-61
2023/01/17 06:49:53;;;;;;;91.40;46.90;;;;;;;19.40;37.43;100877.56;21034190;28;20411;-61
2023/01/17 06:59:54;;;;;;;86.20;44.45;;;;;;;19.42;37.55;100889.22;21076166;28;20101;-59
2023/01/17 07:09:55;;;;;;;76.90;41.33;;;;;;;19.18;37.37;100831.44;21078664;28;20052;-60
2023/01/17 07:19:57;;;;;;;66.25;37.00;;;;;;;19.45;37.07;100889.50;21081820;28;20074;-61
2023/01/17 07:29:58;;;;;;;56.60;31.80;;;;;;;19.43;36.83;100896.47;21077854;28;20453;-61
2023/01/17 07:40:07;;;;;;;53.47;30.85;;;;;;;19.42;36.47;100878.13;21073142;28;20039;-61
2023/01/17 07:50:10;;;;;;;47.72;27.80;;;;;;;19.18;36.41;100853.63;21077320;28;20040;-61
2023/01/17 08:00:12;;;;;;;43.00;24.15;;;;;;;19.42;36.41;100858.69;21076332;28;20572;-61
2023/01/17 08:10:16;;;;;;;39.42;22.85;;;;;;;19.40;35.80;100822.06;21071729;28;20556;-60
2023/01/17 08:20:18;;;;;;;36.30;21.17;;;;;;;19.36;36.18;100832.03;21066851;28;20056;-60
2023/01/17 08:30:23;;;;;;;34.17;19.92;;;;;;;19.34;35.81;100812.06;21074035;28;20104;-60
2023/01/17 08:40:24;;;;;;;31.60;17.58;;;;;;;19.25;35.73;100807.06;21073336;28;20093;-61
2023/01/17 08:50:26;;;;;;;29.48;17.08;;;;;;;19.23;35.49;100795.38;21073273;28;20044;-61
2023/01/17 09:00:28;;;;;;;25.70;15.75;;;;;;;19.18;35.83;100797.31;21070881;28;20098;-61
2023/01/17 09:10:30;;;;;;;24.27;15.52;;;;;;;19.24;35.82;100830.34;21076605;28;20040;-61
2023/01/17 09:20:34;;;;;;;25.17;14.57;;;;;;;19.23;35.60;100833.38;21085807;28;20040;-61
2023/01/17 09:30:35;;;;;;;21.35;13.35;;;;;;;19.19;35.60;100835.88;21088897;28;20047;-61
2023/01/17 09:40:42;;;;;;;21.88;12.82;;;;;;;19.16;35.45;100824.50;21091971;28;20559;-62
2023/01/17 09:50:53;;;;;;;17.60;10.90;;;;;;;19.11;35.83;100780.94;21084584;28;20117;-61
2023/01/17 10:01:14;;;;;;;15.15;9.73;;;;;;;19.16;35.79;100789.28;21086122;28;20036;-61
2023/01/17 10:11:42;;;;;;;16.38;10.50;;;;;;;19.12;35.93;100821.44;21085377;28;20399;-61
2023/01/17 10:21:58;;;;;;;15.70;9.55;;;;;;;19.14;35.54;100821.97;21073291;28;20057;-61
2023/01/17 10:32:03;;;;;;;16.42;9.45;;;;;;;18.92;35.33;100768.66;21087547;28;20548;-61
2023/01/17 10:42:23;;;;;;;15.50;9.43;;;;;;;18.88;35.53;100773.09;21078860;28;20044;-61
2023/01/17 10:53:02;;;;;;;14.45;8.52;;;;;;;19.04;35.61;100797.81;21085682;28;20164;-61
2023/01/17 11:03:04;;;;;;;13.80;7.68;;;;;;;19.09;35.31;100749.84;21085034;28;20044;-61
2023/01/17 11:13:34;;;;;;;11.15;6.75;;;;;;;18.97;35.27;100763.16;21083073;28;20479;-61
2023/01/17 11:23:42;;;;;;;11.50;7.38;;;;;;;19.04;35.38;100775.63;21071881;28;20036;-61
2023/01/17 11:34:04;;;;;;;10.07;6.50;;;;;;;19.02;35.01;100739.03;21078598;28;20048;-61
2023/01/17 11:44:25;;;;;;;8.90;6.25;;;;;;;18.94;35.41;100766.44;21081025;28;20553;-61
2023/01/17 11:54:30;;;;;;;8.45;5.63;;;;;;;18.88;34.80;100732.34;21081767;28;20036;-62
2023/01/17 12:04:41;;;;;;;9.05;5.63;;;;;;;18.94;34.89;100753.41;21079256;28;20044;-64
2023/01/17 12:15:01;;;;;;;10.57;5.63;;;;;;;18.90;35.35;100759.78;21073522;28;20089;-61
2023/01/17 12:25:21;;;;;;;;;;;;;;;18.94;35.43;100770.06;21072409;28;20051;-61
2023/01/17 12:35:43;;;;;;;8.43;5.65;;;;;;;18.92;35.46;100777.81;21070533;28;19916;-62
2023/01/17 12:45:48;;;;;;;17.25;8.18;;;;;;;18.92;35.99;100760.31;21073782;28;20040;-60
2023/01/17 12:56:13;;;;;;;12.80;7.78;;;;;;;18.91;36.42;100766.97;21072625;28;20105;-60
2023/01/17 13:06:42;;;;;;;12.43;7.57;;;;;;;18.66;36.29;100729.72;21073201;28;20048;-61
2023/01/17 13:16:58;;;;;;;14.53;8.27;;;;;;;18.95;37.33;100759.78;21073906;28;20059;-61
2023/01/17 13:27:23;;;;;;;14.23;7.43;;;;;;;18.88;37.94;100756.47;21064206;28;20048;-60
2023/01/17 13:37:46;;;;;;;16.25;7.32;;;;;;;18.89;38.38;100747.03;21062962;28;20430;-60
2023/01/17 13:47:47;;;;;;;15.48;6.95;;;;;;;18.88;38.60;100740.66;21069005;28;20048;-61
2023/01/17 13:57:49;;;;;;;20.40;6.63;;;;;;;18.81;38.66;100742.00;21074365;28;20035;-61
2023/01/17 14:07:58;;;;;;;15.50;6.78;;;;;;;18.67;38.50;100722.22;21086022;28;20117;-61
2023/01/17 14:18:02;;;;;;;10.00;6.00;;;;;;;18.66;39.05;100738.03;21082036;28;20058;-61
2023/01/17 14:28:29;;;;;;;10.35;6.03;;;;;;;18.32;38.91;100686.88;21089013;28;20334;-61
2023/01/17 14:38:32;;;;;;;12.25;5.93;;;;;;;18.52;38.90;100723.00;21087784;28;20044;-62
2023/01/17 14:48:38;;;;;;;12.25;6.70;;;;;;;18.48;39.07;100713.56;21087779;28;20325;-62
2023/01/17 14:58:40;;;;;;;8.75;5.65;;;;;;;18.33;38.93;100691.34;21085851;28;20094;-62
2023/01/17 15:08:41;;;;;;;12.27;6.75;;;;;;;18.41;39.15;100688.03;21085059;28;20422;-61
2023/01/17 15:18:46;;;;;;;12.63;6.03;;;;;;;18.16;38.99;100652.75;21083452;28;20048;-61
2023/01/17 15:28:48;;;;;;;9.52;5.97;;;;;;;18.33;38.94;100686.63;21083854;28;20555;-61
2023/01/17 15:39:01;;;;;;;10.40;5.95;;;;;;;18.28;38.88;100687.44;21082229;28;20040;-62
2023/01/17 15:49:29;;;;;;;10.23;5.80;;;;;;;18.26;38.64;100663.88;21081611;28;20048;-60
2023/01/17 15:59:57;;;;;;;6.15;4.18;;;;;;;18.39;38.17;100652.28;21080101;28;20126;-60
2023/01/17 16:10:14;;;;;;;7.90;4.07;;;;;;;18.47;37.65;100620.47;21078925;28;20109;-60
2023/01/17 16:20:40;;;;;;;7.40;4.53;;;;;;;18.54;37.51;100582.22;21079398;28;20073;-60
2023/01/17 16:30:43;;;;;;;5.97;3.88;;;;;;;18.61;37.31;100588.38;21078519;28;20426;-59
2023/01/17 16:40:52;;;;;;;8.73;4.22;;;;;;;18.68;36.90;100577.81;21078014;28;20089;-60
2023/01/17 16:50:54;;;;;;;5.40;3.90;;;;;;;18.62;37.09;100547.63;21077463;28;20040;-62
2023/01/17 17:00:56;;;;;;;5.45;3.38;;;;;;;18.76;37.21;100523.84;21076667;28;20052;-61
2023/01/17 17:11:13;;;;;;;5.78;4.10;;;;;;;18.81;37.39;100487.78;21075627;28;20048;-61
2023/01/17 17:21:21;;;;;;;6.15;3.83;;;;;;;18.70;37.06;100450.94;21075794;28;20607;-61
2023/01/17 17:31:23;;;;;;;6.53;3.65;;;;;;;18.93;37.01;100484.75;21074710;28;20040;-61
2023/01/17 17:41:29;;;;;;;5.03;3.45;;;;;;;18.87;37.03;100408.22;21087648;28;20051;-61
2023/01/17 17:51:33;;;;;;;5.88;3.67;;;;;;;18.86;37.01;100390.75;21090946;28;20489;-61
2023/01/17 18:01:37;;;;;;;6.30;3.63;;;;;;;18.85;36.42;100411.28;21090582;28;20126;-61
2023/01/17 18:11:40;;;;;;;4.70;3.33;;;;;;;19.06;36.32;100384.34;21090156;28;20036;-61
2023/01/17 18:21:42;;;;;;;4.22;3.28;;;;;;;19.10;36.48;100406.78;21089480;28;20549;-61
2023/01/17 18:31:44;;;;;;;4.88;3.22;;;;;;;19.08;36.28;100382.13;21088335;28;20043;-61
2023/01/17 18:41:46;;;;;;;3.75;2.95;;;;;;;18.93;36.55;100354.44;21086509;28;20043;-61
2023/01/17 18:51:51;;;;;;;5.75;3.17;;;;;;;19.08;36.33;100326.66;21086121;28;20581;-61
2023/01/17 19:01:55;;;;;;;4.13;3.00;;;;;;;19.09;36.60;100339.41;21084969;28;20040;-61
2023/01/17 19:11:57;;;;;;;3.63;3.10;;;;;;;19.12;36.63;100341.63;21084006;28;20536;-61
2023/01/17 19:21:58;;;;;;;3.80;2.90;;;;;;;19.11;36.72;100328.88;21083952;28;20403;-60
2023/01/17 19:32:00;;;;;;;4.13;3.03;;;;;;;19.08;36.42;100328.59;21083353;28;20386;-61
2023/01/17 19:42:01;;;;;;;3.90;2.85;;;;;;;19.04;36.54;100320.00;21082663;28;20387;-61
2023/01/17 19:52:03;;;;;;;4.32;2.90;;;;;;;19.00;36.74;100319.72;21081732;28;20032;-60
2023/01/17 20:02:04;;;;;;;4.40;3.03;;;;;;;18.98;36.36;100333.06;21080040;28;20036;-60
2023/01/17 20:12:09;;;;;;;4.47;2.80;;;;;;;18.88;36.61;100332.28;21080459;28;20476;-61
2023/01/17 20:22:11;;;;;;;4.53;3.10;;;;;;;18.93;36.63;100362.75;21064550;28;20375;-60
2023/01/17 20:32:12;;;;;;;4.63;2.80;;;;;;;18.90;36.38;100355.00;21075206;28;20048;-60
2023/01/17 20:42:14;;;;;;;4.25;2.67;;;;;;;18.66;36.65;100330.63;21077754;28;20438;-60
2023/01/17 20:52:15;;;;;;;4.65;2.72;;;;;;;18.89;36.47;100367.19;21075485;28;20040;-61
2023/01/17 21:02:17;;;;;;;5.63;2.72;;;;;;;18.84;36.88;100359.72;21074820;28;20556;-60
2023/01/17 21:12:20;;;;;;;4.10;2.90;;;;;;;18.82;36.95;100370.25;21067395;28;20052;-61
2023/01/17 21:22:21;;;;;;;7.95;3.08;;;;;;;18.69;36.85;100324.56;21062976;28;20048;-61
2023/01/17 21:32:23;;;;;;;7.32;3.30;;;;;;;18.82;37.03;100348.06;21070248;28;20082;-61
2023/01/17 21:42:30;;;;;;;9.00;3.00;;;;;;;18.83;37.42;100371.06;21065802;28;20041;-60
2023/01/17 21:52:34;;;;;;;8.23;3.05;;;;;;;18.82;37.44;100369.41;21061402;28;20580;-67
2023/01/17 22:02:35;;;;;;;5.70;3.03;;;;;;;18.73;38.09;100358.06;21011063;28;1720322;-60
2023/01/17 22:12:37;;;;;;;7.75;2.97;;;;;;;18.71;38.12;100355.59;21074825;28;20488;-60
2023/01/17 22:22:41;;;;;;;9.45;3.30;;;;;;;18.69;37.80;100368.06;21078177;28;20043;-59
2023/01/17 22:32:42;;;;;;;4.32;2.75;;;;;;;18.67;37.84;100368.31;21087932;28;20488;-60
2023/01/17 22:42:44;;;;;;;8.05;2.80;;;;;;;18.66;37.57;100397.13;21087932;28;20071;-60
2023/01/17 22:52:45;;;;;;;7.70;3.20;;;;;;;18.65;37.91;100398.25;21087089;28;20036;-61
2023/01/17 23:02:49;;;;;;;6.10;2.65;;;;;;;18.63;37.52;100396.84;21086155;28;20055;-60
2023/01/17 23:12:53;;;;;;;7.03;3.20;;;;;;;18.59;37.99;100415.97;21085133;28;20052;-60
2023/01/17 23:22:57;;;;;;;5.93;2.78;;;;;;;18.50;38.12;100425.94;21084117;28;20066;-60
2023/01/17 23:33:03;;;;;;;5.53;3.13;;;;;;;18.57;38.18;100426.53;21076837;28;20048;-62
2023/01/17 23:43:27;;;;;;;5.88;2.53;;;;;;;17.90;37.73;100339.78;21075856;28;20039;-61
2023/01/17 23:53:31;;;;;;;6.60;2.78;;;;;;;18.63;38.17;100442.03;21050329;28;20048;-61
